createdAt,value
2018-05-21T00:01:01.594Z,6.95
2018-05-21T00:02:10.158Z,6.85
2018-05-21T00:03:18.761Z,5.90
2018-05-21T00:04:28.141Z,6.22
2018-05-21T00:05:36.941Z,6.30
2018-05-21T00:06:45.573Z,6.47
2018-05-21T00:07:54.858Z,6.55
2018-05-21T00:09:03.648Z,6.87
2018-05-21T00:10:12.213Z,6.35
2018-05-21T00:11:20.950Z,6.32
2018-05-21T00:12:29.511Z,6.25
2018-05-21T00:13:38.201Z,5.97
2018-05-21T00:14:46.817Z,6.05
2018-05-21T00:15:55.455Z,7.30
2018-05-21T00:17:04.074Z,6.10
2018-05-21T00:18:12.793Z,6.20
2018-05-21T00:19:21.623Z,6.15
2018-05-21T00:20:30.185Z,6.50
2018-05-21T00:21:38.860Z,5.85
2018-05-21T00:22:47.596Z,7.03
2018-05-21T00:23:56.404Z,6.90
2018-05-21T00:25:05.051Z,6.60
2018-05-21T00:26:13.642Z,6.47
2018-05-21T00:27:22.228Z,7.05
2018-05-21T00:28:30.889Z,6.90
2018-05-21T00:29:39.619Z,6.37
2018-05-21T00:30:48.277Z,7.25
2018-05-21T00:31:56.897Z,7.00
2018-05-21T00:33:05.617Z,7.80
2018-05-21T00:34:14.314Z,7.43
2018-05-21T00:35:22.895Z,6.50
2018-05-21T00:36:31.507Z,6.95
2018-05-21T00:37:40.039Z,6.70
2018-05-21T00:38:48.547Z,7.12
2018-05-21T00:39:57.250Z,6.70
2018-05-21T00:41:05.892Z,7.15
2018-05-21T00:42:14.559Z,7.35
2018-05-21T00:43:23.995Z,6.78
2018-05-21T00:44:32.691Z,6.15
2018-05-21T00:45:42.186Z,6.37
2018-05-21T00:46:51.025Z,6.80
2018-05-21T00:48:00.495Z,6.18
2018-05-21T00:49:09.218Z,7.50
2018-05-21T00:50:18.007Z,7.30
2018-05-21T00:51:26.603Z,7.25
2018-05-21T00:52:35.225Z,6.43
2018-05-21T00:53:43.810Z,6.45
2018-05-21T00:55:04.394Z,6.78
2018-05-21T00:56:13.008Z,7.55
2018-05-21T00:57:21.565Z,6.72
2018-05-21T00:58:30.226Z,6.75
2018-05-21T00:59:38.781Z,6.65
2018-05-21T01:00:47.451Z,6.78
2018-05-21T01:01:56.325Z,6.97
2018-05-21T01:03:05.095Z,6.47
2018-05-21T01:04:14.527Z,7.12
2018-05-21T01:05:23.169Z,6.68
2018-05-21T01:06:31.828Z,7.10
2018-05-21T01:07:40.534Z,7.53
2018-05-21T01:08:49.198Z,7.25
2018-05-21T01:09:57.735Z,7.25
2018-05-21T01:11:06.410Z,6.70
2018-05-21T01:12:15.220Z,7.50
2018-05-21T01:13:24.646Z,7.93
2018-05-21T01:14:34.132Z,8.27
2018-05-21T01:15:42.922Z,7.47
2018-05-21T01:16:52.301Z,7.37
2018-05-21T01:18:01.031Z,7.90
2018-05-21T01:19:09.735Z,7.40
2018-05-21T01:20:18.413Z,7.65
2018-05-21T01:21:27.197Z,7.20
2018-05-21T01:22:37.523Z,7.53
2018-05-21T01:23:46.182Z,8.20
2018-05-21T01:24:55.506Z,6.90
2018-05-21T01:26:04.235Z,7.07
2018-05-21T01:27:13.723Z,7.57
2018-05-21T01:28:22.387Z,7.85
2018-05-21T01:29:31.084Z,7.85
2018-05-21T01:30:39.676Z,7.55
2018-05-21T01:31:48.330Z,7.50
2018-05-21T01:32:57.083Z,6.68
2018-05-21T01:34:05.719Z,7.68
2018-05-21T01:35:15.225Z,7.57
2018-05-21T01:36:24.001Z,8.60
2018-05-21T01:37:32.648Z,7.53
2018-05-21T01:38:41.285Z,7.00
2018-05-21T01:39:49.978Z,8.00
2018-05-21T01:40:58.620Z,8.32
2018-05-21T01:42:07.204Z,7.50
2018-05-21T01:43:15.809Z,8.30
2018-05-21T01:44:24.450Z,8.05
2018-05-21T01:45:33.876Z,7.70
2018-05-21T01:46:42.600Z,8.50
2018-05-21T01:47:51.338Z,8.60
2018-05-21T01:49:00.155Z,8.40
2018-05-21T01:50:08.835Z,7.53
2018-05-21T01:51:17.436Z,7.30
2018-05-21T01:52:26.744Z,7.37
2018-05-21T01:53:35.482Z,7.75
2018-05-21T01:54:44.030Z,7.70
2018-05-21T01:55:52.661Z,7.65
2018-05-21T01:57:02.095Z,7.70
2018-05-21T01:58:10.628Z,8.07
2018-05-21T01:59:20.249Z,8.07
2018-05-21T02:00:28.910Z,8.98
2018-05-21T02:01:37.599Z,7.85
2018-05-21T02:02:46.299Z,7.30
2018-05-21T02:03:55.863Z,6.62
2018-05-21T02:05:05.320Z,7.78
2018-05-21T02:06:13.978Z,7.97
2018-05-21T02:07:23.562Z,7.30
2018-05-21T02:08:32.273Z,7.18
2018-05-21T02:09:40.884Z,7.95
2018-05-21T02:10:50.390Z,8.13
2018-05-21T02:11:59.162Z,7.45
2018-05-21T02:13:07.669Z,7.90
2018-05-21T02:14:16.286Z,8.55
2018-05-21T02:15:24.866Z,7.97
2018-05-21T02:16:33.446Z,7.60
2018-05-21T02:17:42.164Z,7.90
2018-05-21T02:18:50.795Z,8.60
2018-05-21T02:19:59.566Z,7.85
2018-05-21T02:21:08.175Z,7.15
2018-05-21T02:22:17.571Z,7.82
2018-05-21T02:23:26.234Z,8.27
2018-05-21T02:24:34.837Z,7.55
2018-05-21T02:25:44.396Z,8.70
2018-05-21T02:26:53.123Z,8.02
2018-05-21T02:28:01.651Z,7.28
2018-05-21T02:29:10.395Z,7.53
2018-05-21T02:30:19.166Z,7.82
2018-05-21T02:31:28.794Z,7.97
2018-05-21T02:32:37.495Z,7.25
2018-05-21T02:33:46.115Z,7.00
2018-05-21T02:34:54.711Z,8.43
2018-05-21T02:36:03.285Z,8.00
2018-05-21T02:37:11.811Z,8.10
2018-05-21T02:38:21.232Z,8.23
2018-05-21T02:39:29.908Z,8.70
2018-05-21T02:40:38.538Z,8.40
2018-05-21T02:41:47.192Z,8.27
2018-05-21T02:42:55.766Z,8.40
2018-05-21T02:44:04.405Z,7.65
2018-05-21T02:45:12.965Z,8.35
2018-05-21T02:46:21.644Z,8.40
2018-05-21T02:47:30.443Z,9.05
2018-05-21T02:48:39.062Z,7.40
2018-05-21T02:49:47.771Z,8.10
2018-05-21T02:50:56.481Z,8.25
2018-05-21T02:52:10.938Z,7.87
2018-05-21T02:53:19.575Z,9.25
2018-05-21T02:54:28.401Z,8.35
2018-05-21T02:55:37.162Z,8.02
2018-05-21T02:56:45.827Z,8.77
2018-05-21T02:57:54.607Z,8.27
2018-05-21T02:59:03.347Z,8.27
2018-05-21T03:00:11.958Z,9.90
2018-05-21T03:01:20.636Z,8.20
2018-05-21T03:02:29.282Z,9.50
2018-05-21T03:03:38.020Z,8.30
2018-05-21T03:04:46.704Z,8.45
2018-05-21T03:05:56.239Z,8.88
2018-05-21T03:07:04.957Z,9.00
2018-05-21T03:08:13.547Z,8.48
2018-05-21T03:09:22.265Z,9.10
2018-05-21T03:10:30.967Z,8.40
2018-05-21T03:11:39.530Z,8.10
2018-05-21T03:12:48.235Z,8.55
2018-05-21T03:13:56.867Z,8.27
2018-05-21T03:15:05.464Z,8.60
2018-05-21T03:16:14.163Z,8.95
2018-05-21T03:17:22.676Z,8.63
2018-05-21T03:18:31.317Z,8.95
2018-05-21T03:19:40.105Z,9.45
2018-05-21T03:20:48.797Z,8.57
2018-05-21T03:21:57.356Z,9.20
2018-05-21T03:23:06.127Z,9.77
2018-05-21T03:24:14.684Z,9.30
2018-05-21T03:25:24.235Z,9.15
2018-05-21T03:26:32.954Z,9.55
2018-05-21T03:27:41.699Z,8.65
2018-05-21T03:28:51.098Z,8.40
2018-05-21T03:29:59.674Z,10.10
2018-05-21T03:31:09.132Z,9.52
2018-05-21T03:32:17.843Z,8.98
2018-05-21T03:33:26.406Z,9.25
2018-05-21T03:34:34.923Z,9.02
2018-05-21T03:35:43.533Z,8.80
2018-05-21T03:36:52.192Z,8.95
2018-05-21T03:38:01.692Z,9.15
2018-05-21T03:39:10.205Z,8.23
2018-05-21T03:40:18.791Z,9.75
2018-05-21T03:41:28.145Z,9.60
2018-05-21T03:42:36.834Z,9.07
2018-05-21T03:43:45.466Z,8.50
2018-05-21T03:44:54.094Z,9.85
2018-05-21T03:46:02.709Z,9.30
2018-05-21T03:47:11.289Z,9.82
2018-05-21T03:48:20.841Z,10.07
2018-05-21T03:49:29.496Z,8.55
2018-05-21T03:50:38.117Z,8.82
2018-05-21T03:51:46.720Z,9.52
2018-05-21T03:52:55.436Z,9.60
2018-05-21T03:54:04.044Z,9.25
2018-05-21T03:55:12.685Z,9.82
2018-05-21T03:56:21.390Z,9.48
2018-05-21T03:57:30.699Z,9.25
2018-05-21T03:58:51.380Z,10.13
2018-05-21T04:00:12.102Z,9.68
2018-05-21T04:01:32.540Z,8.40
2018-05-21T04:02:53.052Z,9.50
2018-05-21T04:04:01.661Z,9.55
2018-05-21T04:05:10.428Z,9.65
2018-05-21T04:06:19.118Z,8.45
2018-05-21T04:07:27.711Z,9.85
2018-05-21T04:08:37.050Z,10.20
2018-05-21T04:09:45.631Z,9.48
2018-05-21T04:10:55.135Z,9.80
2018-05-21T04:12:03.678Z,9.30
2018-05-21T04:13:12.376Z,9.80
2018-05-21T04:14:21.137Z,9.50
2018-05-21T04:15:30.755Z,9.60
2018-05-21T04:16:39.361Z,9.85
2018-05-21T04:17:48.881Z,9.70
2018-05-21T04:18:57.506Z,9.15
2018-05-21T04:20:06.320Z,9.35
2018-05-21T04:21:15.053Z,10.70
2018-05-21T04:22:23.848Z,10.27
2018-05-21T04:23:32.651Z,9.05
2018-05-21T04:24:41.381Z,10.00
2018-05-21T04:25:51.700Z,10.07
2018-05-21T04:27:00.312Z,9.70
2018-05-21T04:28:09.055Z,10.55
2018-05-21T04:29:17.762Z,10.13
2018-05-21T04:30:26.467Z,9.43
2018-05-21T04:31:35.205Z,10.02
2018-05-21T04:32:43.993Z,10.32
2018-05-21T04:33:52.602Z,9.88
2018-05-21T04:35:01.360Z,9.70
2018-05-21T04:36:10.048Z,9.80
2018-05-21T04:37:19.465Z,10.23
2018-05-21T04:38:28.375Z,9.80
2018-05-21T04:39:37.167Z,11.07
2018-05-21T04:40:45.740Z,10.35
2018-05-21T04:41:54.458Z,9.60
2018-05-21T04:43:03.062Z,9.98
2018-05-21T04:44:11.662Z,9.80
2018-05-21T04:45:20.430Z,10.35
2018-05-21T04:46:29.099Z,9.57
2018-05-21T04:47:37.760Z,9.30
2018-05-21T04:48:46.418Z,9.68
2018-05-21T04:49:55.022Z,9.73
2018-05-21T04:51:03.828Z,10.45
2018-05-21T04:52:12.581Z,9.27
2018-05-21T04:53:21.287Z,9.50
2018-05-21T04:54:30.007Z,10.25
2018-05-21T04:55:38.704Z,10.25
2018-05-21T04:56:47.479Z,9.63
2018-05-21T04:57:56.872Z,9.43
2018-05-21T04:59:05.589Z,9.65
2018-05-21T05:00:14.280Z,10.55
2018-05-21T05:01:23.061Z,9.27
2018-05-21T05:02:31.824Z,10.90
2018-05-21T05:03:40.381Z,9.82
2018-05-21T05:04:49.102Z,9.20
2018-05-21T05:05:57.731Z,10.32
2018-05-21T05:07:06.404Z,9.55
2018-05-21T05:08:15.116Z,9.10
2018-05-21T05:09:23.738Z,10.32
2018-05-21T05:10:32.431Z,10.75
2018-05-21T05:11:41.203Z,9.30
2018-05-21T05:12:49.855Z,12.05
2018-05-21T05:13:58.472Z,9.13
2018-05-21T05:15:07.086Z,9.65
2018-05-21T05:16:16.528Z,10.13
2018-05-21T05:17:25.108Z,9.50
2018-05-21T05:18:33.786Z,9.70
2018-05-21T05:19:42.388Z,9.80
2018-05-21T05:20:50.993Z,11.07
2018-05-21T05:22:00.612Z,9.90
2018-05-21T05:23:09.389Z,10.10
2018-05-21T05:24:18.114Z,9.80
2018-05-21T05:25:26.938Z,10.00
2018-05-21T05:26:35.706Z,9.85
2018-05-21T05:27:45.162Z,9.70
2018-05-21T05:28:53.865Z,9.52
2018-05-21T05:30:03.199Z,9.18
2018-05-21T05:31:12.648Z,9.10
2018-05-21T05:32:21.313Z,9.65
2018-05-21T05:33:29.996Z,8.52
2018-05-21T05:34:38.650Z,8.48
2018-05-21T05:35:47.379Z,9.98
2018-05-21T05:36:56.053Z,9.35
2018-05-21T05:38:05.640Z,9.40
2018-05-21T05:39:14.444Z,10.73
2018-05-21T05:40:23.153Z,9.00
2018-05-21T05:41:31.785Z,8.80
2018-05-21T05:42:40.610Z,8.73
2018-05-21T05:43:49.257Z,9.73
2018-05-21T05:44:57.978Z,9.15
2018-05-21T05:46:06.706Z,9.63
2018-05-21T05:47:15.392Z,9.05
2018-05-21T05:48:24.081Z,8.82
2018-05-21T05:49:32.766Z,9.02
2018-05-21T05:50:41.438Z,8.20
2018-05-21T05:51:50.983Z,7.82
2018-05-21T05:52:59.663Z,8.80
2018-05-21T05:54:08.276Z,8.35
2018-05-21T05:55:16.909Z,9.13
2018-05-21T05:56:25.434Z,9.35
2018-05-21T05:57:33.996Z,9.20
2018-05-21T05:58:43.360Z,9.00
2018-05-21T05:59:51.895Z,9.57
2018-05-21T06:01:00.605Z,8.40
2018-05-21T06:02:09.203Z,8.63
2018-05-21T06:03:17.771Z,8.65
2018-05-21T06:04:26.500Z,8.13
2018-05-21T06:05:35.234Z,9.10
2018-05-21T06:06:43.786Z,9.20
2018-05-21T06:07:53.227Z,8.23
2018-05-21T06:09:01.963Z,10.02
2018-05-21T06:10:10.744Z,9.35
2018-05-21T06:11:19.741Z,8.18
2018-05-21T06:12:29.342Z,8.48
2018-05-21T06:13:38.085Z,8.30
2018-05-21T06:14:46.734Z,8.50
2018-05-21T06:15:55.315Z,8.43
2018-05-21T06:17:04.001Z,8.60
2018-05-21T06:18:12.830Z,8.82
2018-05-21T06:19:21.617Z,8.25
2018-05-21T06:20:30.274Z,7.82
2018-05-21T06:21:39.950Z,9.15
2018-05-21T06:22:48.551Z,7.30
2018-05-21T06:23:57.158Z,7.97
2018-05-21T06:25:06.548Z,8.57
2018-05-21T06:26:15.204Z,8.35
2018-05-21T06:27:23.848Z,8.73
2018-05-21T06:28:32.476Z,9.10
2018-05-21T06:29:41.186Z,9.00
2018-05-21T06:30:50.611Z,7.80
2018-05-21T06:31:59.417Z,8.07
2018-05-21T06:33:08.087Z,9.07
2018-05-21T06:34:16.836Z,9.40
2018-05-21T06:35:26.181Z,9.13
2018-05-21T06:36:35.059Z,8.25
2018-05-21T06:37:43.650Z,8.05
2018-05-21T06:38:52.371Z,7.30
2018-05-21T06:40:00.960Z,8.25
2018-05-21T06:41:09.716Z,8.13
2018-05-21T06:42:18.307Z,8.13
2018-05-21T06:43:26.954Z,7.57
2018-05-21T06:44:35.806Z,8.32
2018-05-21T06:45:44.398Z,7.00
2018-05-21T06:46:53.047Z,8.43
2018-05-21T06:48:02.419Z,7.50
2018-05-21T06:49:11.095Z,7.70
2018-05-21T06:50:19.765Z,8.73
2018-05-21T06:51:28.426Z,8.40
2018-05-21T06:52:37.085Z,8.27
2018-05-21T06:53:45.906Z,9.65
2018-05-21T06:54:55.511Z,8.85
2018-05-21T06:56:04.239Z,7.47
2018-05-21T06:57:12.873Z,8.50
2018-05-21T06:58:21.530Z,8.90
2018-05-21T06:59:30.145Z,9.45
2018-05-21T07:00:38.752Z,9.48
2018-05-21T07:01:47.484Z,8.70
2018-05-21T07:02:56.133Z,8.68
2018-05-21T07:04:04.662Z,8.30
2018-05-21T07:05:13.319Z,7.37
2018-05-21T07:06:22.107Z,7.85
2018-05-21T07:07:30.971Z,8.32
2018-05-21T07:08:39.677Z,8.27
2018-05-21T07:09:48.462Z,7.40
2018-05-21T07:10:57.106Z,8.35
2018-05-21T07:12:06.514Z,8.10
2018-05-21T07:13:15.339Z,8.20
2018-05-21T07:14:23.977Z,7.65
2018-05-21T07:15:32.664Z,6.82
2018-05-21T07:16:41.433Z,7.85
2018-05-21T07:17:50.983Z,8.45
2018-05-21T07:18:59.578Z,7.97
2018-05-21T07:20:08.103Z,8.25
2018-05-21T07:21:16.834Z,7.70
2018-05-21T07:22:25.579Z,8.20
2018-05-21T07:23:34.248Z,7.40
2018-05-21T07:24:42.943Z,7.78
2018-05-21T07:25:51.628Z,7.75
2018-05-21T07:27:00.366Z,6.72
2018-05-21T07:28:09.007Z,7.90
2018-05-21T07:29:17.761Z,6.75
2018-05-21T07:30:26.369Z,7.00
2018-05-21T07:31:35.220Z,7.65
2018-05-21T07:32:43.725Z,7.68
2018-05-21T07:33:52.556Z,7.35
2018-05-21T07:35:01.416Z,8.00
2018-05-21T07:36:11.002Z,6.68
2018-05-21T07:37:19.626Z,7.50
2018-05-21T07:38:28.189Z,8.00
2018-05-21T07:39:36.824Z,7.20
2018-05-21T07:40:45.421Z,7.20
2018-05-21T07:41:53.982Z,7.28
2018-05-21T07:43:02.590Z,7.25
2018-05-21T07:44:11.357Z,7.37
2018-05-21T07:45:20.879Z,7.05
2018-05-21T07:46:29.657Z,7.15
2018-05-21T07:47:38.424Z,7.00
2018-05-21T07:48:47.118Z,7.70
2018-05-21T07:49:55.696Z,7.05
2018-05-21T07:51:04.271Z,7.82
2018-05-21T07:52:13.011Z,8.00
2018-05-21T07:53:21.587Z,7.37
2018-05-21T07:54:30.304Z,6.80
2018-05-21T07:55:38.963Z,6.80
2018-05-21T07:56:48.439Z,7.43
2018-05-21T07:57:57.178Z,7.35
2018-05-21T07:59:05.770Z,7.70
2018-05-21T08:00:14.359Z,7.68
2018-05-21T08:01:23.841Z,7.78
2018-05-21T08:02:32.531Z,6.60
2018-05-21T08:03:41.184Z,8.00
2018-05-21T08:04:51.224Z,6.45
2018-05-21T08:05:59.871Z,7.45
2018-05-21T08:07:08.679Z,6.50
2018-05-21T08:08:17.393Z,6.85
2018-05-21T08:09:26.777Z,6.57
2018-05-21T08:10:35.575Z,7.12
2018-05-21T08:11:44.280Z,5.97
2018-05-21T08:12:53.026Z,6.78
2018-05-21T08:14:01.718Z,7.00
2018-05-21T08:15:10.425Z,6.87
2018-05-21T08:16:19.071Z,7.32
2018-05-21T08:17:27.815Z,7.15
2018-05-21T08:18:36.356Z,7.22
2018-05-21T08:19:45.069Z,6.43
2018-05-21T08:20:53.762Z,6.75
2018-05-21T08:22:03.108Z,7.03
2018-05-21T08:23:12.430Z,5.25
2018-05-21T08:24:21.143Z,6.62
2018-05-21T08:25:29.815Z,7.10
2018-05-21T08:26:38.472Z,7.10
2018-05-21T08:27:47.072Z,7.62
2018-05-21T08:28:55.753Z,8.88
2018-05-21T08:30:04.392Z,6.95
2018-05-21T08:31:13.795Z,7.10
2018-05-21T08:32:22.709Z,6.50
2018-05-21T08:33:31.368Z,6.70
2018-05-21T08:34:40.861Z,6.25
2018-05-21T08:35:50.394Z,6.40
2018-05-21T08:36:59.051Z,6.60
2018-05-21T08:38:07.701Z,6.57
2018-05-21T08:39:16.309Z,7.15
2018-05-21T08:40:25.686Z,17.92
2018-05-21T08:41:34.433Z,9.45
2018-05-21T08:42:43.087Z,7.75
2018-05-21T08:43:52.777Z,8.90
2018-05-21T08:45:01.580Z,7.87
2018-05-21T08:46:10.340Z,7.00
2018-05-21T08:47:19.120Z,6.40
2018-05-21T08:48:27.884Z,6.07
2018-05-21T08:49:36.576Z,5.93
2018-05-21T08:50:45.940Z,5.70
2018-05-21T08:51:54.632Z,6.40
2018-05-21T08:53:03.306Z,7.22
2018-05-21T08:54:12.050Z,6.22
2018-05-21T08:55:20.735Z,5.40
2018-05-21T08:56:29.387Z,6.30
2018-05-21T08:57:37.925Z,9.38
2018-05-21T08:58:46.637Z,8.52
2018-05-21T08:59:55.291Z,8.95
2018-05-21T09:01:04.098Z,7.45
2018-05-21T09:02:13.403Z,6.55
2018-05-21T09:03:22.228Z,5.80
2018-05-21T09:04:30.813Z,6.18
2018-05-21T09:05:39.391Z,5.85
2018-05-21T09:06:48.041Z,5.65
2018-05-21T09:07:56.666Z,5.90
2018-05-21T09:09:06.919Z,6.05
2018-05-21T09:10:15.471Z,6.90
2018-05-21T09:11:24.124Z,5.37
2018-05-21T09:12:32.875Z,6.93
2018-05-21T09:13:41.569Z,7.30
2018-05-21T09:14:50.255Z,6.03
2018-05-21T09:15:58.907Z,9.15
2018-05-21T09:17:07.602Z,6.93
2018-05-21T09:18:16.270Z,5.70
2018-05-21T09:19:24.905Z,6.75
2018-05-21T09:20:33.583Z,6.20
2018-05-21T09:21:42.213Z,5.57
2018-05-21T09:22:50.920Z,5.62
2018-05-21T09:23:59.588Z,7.20
2018-05-21T09:25:09.062Z,6.47
2018-05-21T09:26:17.788Z,6.60
2018-05-21T09:27:26.521Z,6.18
2018-05-21T09:28:35.133Z,6.50
2018-05-21T09:29:43.627Z,5.45
2018-05-21T09:30:52.296Z,6.53
2018-05-21T09:32:00.962Z,7.20
2018-05-21T09:33:10.388Z,7.55
2018-05-21T09:34:19.052Z,6.65
2018-05-21T09:35:27.747Z,6.05
2018-05-21T09:36:36.369Z,5.68
2018-05-21T09:37:45.078Z,6.50
2018-05-21T09:38:53.830Z,7.03
2018-05-21T09:40:02.549Z,7.18
2018-05-21T09:41:11.394Z,6.53
2018-05-21T09:42:20.079Z,7.10
2018-05-21T09:43:28.900Z,6.40
2018-05-21T09:44:38.295Z,6.50
2018-05-21T09:45:47.010Z,5.97
2018-05-21T09:46:55.809Z,5.75
2018-05-21T09:48:05.350Z,6.20
2018-05-21T09:49:13.790Z,5.30
2018-05-21T09:50:22.477Z,5.28
2018-05-21T09:51:31.050Z,5.22
2018-05-21T09:52:39.727Z,5.43
2018-05-21T09:53:48.311Z,5.80
2018-05-21T09:54:56.834Z,5.60
2018-05-21T09:56:05.555Z,6.65
2018-05-21T09:57:14.110Z,6.37
2018-05-21T09:58:22.937Z,5.65
2018-05-21T09:59:31.540Z,6.25
2018-05-21T10:00:40.145Z,5.85
2018-05-21T10:01:48.751Z,6.80
2018-05-21T10:02:57.389Z,6.70
2018-05-21T10:04:05.948Z,6.75
2018-05-21T10:05:14.565Z,6.22
2018-05-21T10:06:23.198Z,5.60
2018-05-21T10:07:31.805Z,5.95
2018-05-21T10:08:40.596Z,6.10
2018-05-21T10:09:49.335Z,5.85
2018-05-21T10:10:57.925Z,6.55
2018-05-21T10:12:06.566Z,7.45
2018-05-21T10:13:15.421Z,5.43
2018-05-21T10:14:24.054Z,4.40
2018-05-21T10:15:33.402Z,5.12
2018-05-21T10:16:42.179Z,5.30
2018-05-21T10:17:51.720Z,5.37
2018-05-21T10:19:00.257Z,6.62
2018-05-21T10:20:08.982Z,5.70
2018-05-21T10:21:18.296Z,5.28
2018-05-21T10:22:26.990Z,5.32
2018-05-21T10:23:36.439Z,4.82
2018-05-21T10:24:45.105Z,5.40
2018-05-21T10:25:53.744Z,5.05
2018-05-21T10:27:02.284Z,5.30
2018-05-21T10:28:10.958Z,5.78
2018-05-21T10:29:20.342Z,6.10
2018-05-21T10:30:29.749Z,5.60
2018-05-21T10:31:38.439Z,6.00
2018-05-21T10:32:47.153Z,6.20
2018-05-21T10:33:55.739Z,6.28
2018-05-21T10:35:04.368Z,5.70
2018-05-21T10:36:12.950Z,5.70
2018-05-21T10:37:21.736Z,5.35
2018-05-21T10:38:30.278Z,5.72
2018-05-21T10:39:39.629Z,5.75
2018-05-21T10:40:48.323Z,6.10
2018-05-21T10:41:56.907Z,7.18
2018-05-21T10:43:05.645Z,7.30
2018-05-21T10:44:14.536Z,6.20
2018-05-21T10:45:23.222Z,7.05
2018-05-21T10:46:32.011Z,5.97
2018-05-21T10:47:41.552Z,5.78
2018-05-21T10:48:50.171Z,6.50
2018-05-21T10:49:58.870Z,6.20
2018-05-21T10:51:07.694Z,5.85
2018-05-21T10:52:16.352Z,5.60
2018-05-21T10:53:25.201Z,6.43
2018-05-21T10:54:34.011Z,6.15
2018-05-21T10:55:44.124Z,6.32
2018-05-21T10:56:52.828Z,6.32
2018-05-21T10:58:01.424Z,7.28
2018-05-21T10:59:10.206Z,7.22
2018-05-21T11:00:18.935Z,7.97
2018-05-21T11:01:27.563Z,7.15
2018-05-21T11:02:36.205Z,6.62
2018-05-21T11:03:44.789Z,6.65
2018-05-21T11:04:53.700Z,6.97
2018-05-21T11:06:02.420Z,6.60
2018-05-21T11:07:11.858Z,6.22
2018-05-21T11:08:20.693Z,6.37
2018-05-21T11:09:29.410Z,7.00
2018-05-21T11:10:38.039Z,6.97
2018-05-21T11:11:46.780Z,6.90
2018-05-21T11:12:55.591Z,7.80
2018-05-21T11:14:05.048Z,8.05
2018-05-21T11:15:13.864Z,6.72
2018-05-21T11:16:22.562Z,7.93
2018-05-21T11:17:31.410Z,7.07
2018-05-21T11:18:40.101Z,7.25
2018-05-21T11:19:49.029Z,6.82
2018-05-21T11:20:57.744Z,7.78
2018-05-21T11:22:06.334Z,6.65
2018-05-21T11:23:14.916Z,6.47
2018-05-21T11:24:24.354Z,6.05
2018-05-21T11:25:33.304Z,6.55
2018-05-21T11:26:42.099Z,7.65
2018-05-21T11:27:50.927Z,7.28
2018-05-21T11:29:00.568Z,7.85
2018-05-21T11:30:09.243Z,7.85
2018-05-21T11:31:17.888Z,7.25
2018-05-21T11:32:27.370Z,7.28
2018-05-21T11:33:35.989Z,7.25
2018-05-21T11:34:45.323Z,8.60
2018-05-21T11:35:54.039Z,7.45
2018-05-21T11:37:03.365Z,9.65
2018-05-21T11:38:12.798Z,8.38
2018-05-21T11:39:21.494Z,8.40
2018-05-21T11:40:30.512Z,7.72
2018-05-21T11:41:39.268Z,7.47
2018-05-21T11:42:48.098Z,7.62
2018-05-21T11:43:56.751Z,6.40
2018-05-21T11:45:05.500Z,7.18
2018-05-21T11:46:14.154Z,8.38
2018-05-21T11:47:22.984Z,8.27
2018-05-21T11:48:31.611Z,6.70
2018-05-21T11:49:40.333Z,7.50
2018-05-21T11:50:49.126Z,7.82
2018-05-21T11:51:58.451Z,6.78
2018-05-21T11:53:07.270Z,7.25
2018-05-21T11:54:15.850Z,6.62
2018-05-21T11:55:24.524Z,7.15
2018-05-21T11:56:33.167Z,6.93
2018-05-21T11:57:41.799Z,7.68
2018-05-21T11:58:50.372Z,7.05
2018-05-21T11:59:59.032Z,6.62
2018-05-21T12:01:07.591Z,6.60
2018-05-21T12:02:16.305Z,8.45
2018-05-21T12:03:25.782Z,7.45
2018-05-21T12:04:34.487Z,6.43
2018-05-21T12:05:43.130Z,6.10
2018-05-21T12:06:51.819Z,7.68
2018-05-21T12:08:00.597Z,6.80
2018-05-21T12:09:10.064Z,7.00
2018-05-21T12:10:18.634Z,6.20
2018-05-21T12:11:27.313Z,6.72
2018-05-21T12:12:36.000Z,6.15
2018-05-21T12:13:44.713Z,5.75
2018-05-21T12:14:53.226Z,5.55
2018-05-21T12:16:01.961Z,6.40
2018-05-21T12:17:10.745Z,6.55
2018-05-21T12:18:20.233Z,6.55
2018-05-21T12:19:29.706Z,6.05
2018-05-21T12:20:38.410Z,5.72
2018-05-21T12:21:47.054Z,5.35
2018-05-21T12:22:55.935Z,5.82
2018-05-21T12:24:04.467Z,5.85
2018-05-21T12:25:13.149Z,6.10
2018-05-21T12:26:21.860Z,5.55
2018-05-21T12:27:30.532Z,6.50
2018-05-21T12:28:39.228Z,5.37
2018-05-21T12:29:47.844Z,6.70
2018-05-21T12:30:56.475Z,7.78
2018-05-21T12:32:05.231Z,7.00
2018-05-21T12:33:14.021Z,6.85
2018-05-21T12:34:22.689Z,6.85
2018-05-21T12:35:31.428Z,6.53
2018-05-21T12:36:39.954Z,6.45
2018-05-21T12:37:48.548Z,6.57
2018-05-21T12:38:57.162Z,5.70
2018-05-21T12:40:05.865Z,6.12
2018-05-21T12:41:15.277Z,7.65
2018-05-21T12:42:23.999Z,6.22
2018-05-21T12:43:32.744Z,6.78
2018-05-21T12:44:41.353Z,6.43
2018-05-21T12:45:50.053Z,5.62
2018-05-21T12:48:13.076Z,6.40
2018-05-21T12:49:21.833Z,6.68
2018-05-21T12:50:30.478Z,6.12
2018-05-21T12:51:39.259Z,5.28
2018-05-21T12:52:47.927Z,8.45
2018-05-21T12:53:56.495Z,6.30
2018-05-21T12:55:05.244Z,7.50
2018-05-21T12:56:14.076Z,6.07
2018-05-21T12:57:22.735Z,5.00
2018-05-21T12:58:31.507Z,5.60
2018-05-21T12:59:40.210Z,5.25
2018-05-21T13:00:49.659Z,5.85
2018-05-21T13:01:58.351Z,5.25
2018-05-21T13:03:06.917Z,4.95
2018-05-21T13:04:15.644Z,5.47
2018-05-21T13:05:24.490Z,6.35
2018-05-21T13:06:33.206Z,5.80
2018-05-21T13:07:42.119Z,5.28
2018-05-21T13:08:50.717Z,5.85
2018-05-21T13:09:59.319Z,5.50
2018-05-21T13:11:08.733Z,5.60
2018-05-21T13:12:17.456Z,6.00
2018-05-21T13:13:26.242Z,5.72
2018-05-21T13:14:35.111Z,4.82
2018-05-21T13:15:43.803Z,4.78
2018-05-21T13:16:52.482Z,6.15
2018-05-21T13:18:01.199Z,5.22
2018-05-21T13:19:10.659Z,5.57
2018-05-21T13:20:19.171Z,5.22
2018-05-21T13:21:27.864Z,5.97
2018-05-21T13:22:36.560Z,5.25
2018-05-21T13:23:45.264Z,5.47
2018-05-21T13:24:53.954Z,5.72
2018-05-21T13:26:02.627Z,5.43
2018-05-21T13:27:11.223Z,5.37
2018-05-21T13:28:19.950Z,4.97
2018-05-21T13:29:28.772Z,5.87
2018-05-21T13:30:37.377Z,4.28
2018-05-21T13:31:46.024Z,4.78
2018-05-21T13:32:54.668Z,5.40
2018-05-21T13:34:03.343Z,5.28
2018-05-21T13:35:11.935Z,5.12
2018-05-21T13:36:20.523Z,5.65
2018-05-21T13:37:29.159Z,5.45
2018-05-21T13:38:37.794Z,5.03
2018-05-21T13:39:47.428Z,5.55
2018-05-21T13:40:56.081Z,5.82
2018-05-21T13:42:04.875Z,4.80
2018-05-21T13:43:13.517Z,5.45
2018-05-21T13:44:22.175Z,4.93
2018-05-21T13:45:30.886Z,5.12
2018-05-21T13:46:39.633Z,5.18
2018-05-21T13:47:48.290Z,5.10
2018-05-21T13:48:57.012Z,5.22
2018-05-21T13:50:05.758Z,4.90
2018-05-21T13:51:14.473Z,5.75
2018-05-21T13:52:23.143Z,4.95
2018-05-21T13:53:31.926Z,4.62
2018-05-21T13:54:40.612Z,5.20
2018-05-21T13:55:49.268Z,5.12
2018-05-21T13:56:57.990Z,4.87
2018-05-21T13:58:06.715Z,5.03
2018-05-21T13:59:15.360Z,4.80
2018-05-21T14:00:24.028Z,4.97
2018-05-21T14:01:32.768Z,5.55
2018-05-21T14:02:41.341Z,5.10
2018-05-21T14:03:51.647Z,4.65
2018-05-21T14:05:00.253Z,4.65
2018-05-21T14:06:08.916Z,4.70
2018-05-21T14:07:17.555Z,5.05
2018-05-21T14:08:26.466Z,4.97
2018-05-21T14:09:35.280Z,5.18
2018-05-21T14:10:43.898Z,5.10
2018-05-21T14:11:53.276Z,4.68
2018-05-21T14:13:01.994Z,4.10
2018-05-21T14:14:10.707Z,4.57
2018-05-21T14:15:19.341Z,5.10
2018-05-21T14:16:28.171Z,5.40
2018-05-21T14:17:36.922Z,5.00
2018-05-21T14:18:45.590Z,5.22
2018-05-21T14:19:55.190Z,4.47
2018-05-21T14:21:03.946Z,6.10
2018-05-21T14:22:12.588Z,5.53
2018-05-21T14:23:21.191Z,4.45
2018-05-21T14:24:29.876Z,4.20
2018-05-21T14:25:38.382Z,4.78
2018-05-21T14:26:47.022Z,5.05
2018-05-21T14:27:55.707Z,4.90
2018-05-21T14:29:04.395Z,4.50
2018-05-21T14:30:13.119Z,4.62
2018-05-21T14:31:21.679Z,5.12
2018-05-21T14:32:30.296Z,5.05
2018-05-21T14:33:39.009Z,4.37
2018-05-21T14:34:47.728Z,4.80
2018-05-21T14:35:56.324Z,4.62
2018-05-21T14:37:04.977Z,4.90
2018-05-21T14:38:17.533Z,4.40
2018-05-21T14:39:26.225Z,4.70
2018-05-21T14:40:34.900Z,4.75
2018-05-21T14:41:44.395Z,5.00
2018-05-21T14:42:53.342Z,4.15
2018-05-21T14:44:02.037Z,4.37
2018-05-21T14:45:10.755Z,4.10
2018-05-21T14:46:19.457Z,4.47
2018-05-21T14:47:28.160Z,5.22
2018-05-21T14:48:37.636Z,4.05
2018-05-21T14:49:46.344Z,4.50
2018-05-21T14:50:55.198Z,4.43
2018-05-21T14:52:04.783Z,4.85
2018-05-21T14:53:13.519Z,4.22
2018-05-21T14:54:22.907Z,5.00
2018-05-21T14:55:31.604Z,4.25
2018-05-21T14:56:40.218Z,4.75
2018-05-21T14:57:48.939Z,4.12
2018-05-21T14:58:57.513Z,4.18
2018-05-21T15:00:06.113Z,3.90
2018-05-21T15:01:14.840Z,4.70
2018-05-21T15:02:23.567Z,4.37
2018-05-21T15:03:32.220Z,5.15
2018-05-21T15:04:41.596Z,4.35
2018-05-21T15:05:50.304Z,4.37
2018-05-21T15:06:59.043Z,4.53
2018-05-21T15:08:07.634Z,4.05
2018-05-21T15:09:16.217Z,4.72
2018-05-21T15:10:24.955Z,3.40
2018-05-21T15:11:33.513Z,3.62
2018-05-21T15:12:42.916Z,5.40
2018-05-21T15:13:51.726Z,3.50
2018-05-21T15:15:00.390Z,4.07
2018-05-21T15:16:09.002Z,3.50
2018-05-21T15:17:17.757Z,3.85